sensor_id;sensor_type;location;lat;lon;timestamp;temperature;humidity
14000;DHT22;7075;53.574;10.054;2022-09-09T00:00:23;15.60;99.90
14000;DHT22;7075;53.574;10.054;2022-09-09T00:02:57;15.60;99.90
14000;DHT22;7075;53.574;10.054;2022-09-09T00:05:48;15.70;99.90
14000;DHT22;7075;53.574;10.054;2022-09-09T00:08:20;15.80;99.90
14000;DHT22;7075;53.574;10.054;2022-09-09T00:10:51;15.80;99.90
14000;DHT22;7075;53.574;10.054;2022-09-09T00:16:36;15.80;99.90
14000;DHT22;7075;53.574;10.054;2022-09-09T00:19:20;15.90;99.90
14000;DHT22;7075;53.574;10.054;2022-09-09T00:25:02;15.70;99.90
14000;DHT22;7075;53.574;10.054;2022-09-09T00:27:43;15.70;99.90
14000;DHT22;7075;53.574;10.054;2022-09-09T00:30:19;15.70;99.90
14000;DHT22;7075;53.574;10.054;2022-09-09T00:32:46;15.70;99.90
14000;DHT22;7075;53.574;10.054;2022-09-09T00:35:24;15.70;99.90
14000;DHT22;7075;53.574;10.054;2022-09-09T00:37:54;15.70;99.90
14000;DHT22;7075;53.574;10.054;2022-09-09T00:40:34;15.70;99.90
14000;DHT22;7075;53.574;10.054;2022-09-09T00:46:13;15.70;99.90
14000;DHT22;7075;53.574;10.054;2022-09-09T00:57:32;15.60;99.90
14000;DHT22;7075;53.574;10.054;2022-09-09T01:02:49;15.70;99.90
14000;DHT22;7075;53.574;10.054;2022-09-09T01:07:52;15.50;99.90
14000;DHT22;7075;53.574;10.054;2022-09-09T01:10:36;15.50;99.90
14000;DHT22;7075;53.574;10.054;2022-09-09T01:13:11;15.50;99.90
14000;DHT22;7075;53.574;10.054;2022-09-09T01:15:42;15.50;99.90
14000;DHT22;7075;53.574;10.054;2022-09-09T01:18:13;15.50;99.90
14000;DHT22;7075;53.574;10.054;2022-09-09T01:20:49;15.50;99.90
14000;DHT22;7075;53.574;10.054;2022-09-09T01:28:46;15.50;99.90
14000;DHT22;7075;53.574;10.054;2022-09-09T01:31:17;15.50;99.90
14000;DHT22;7075;53.574;10.054;2022-09-09T01:33:43;15.50;99.90
14000;DHT22;7075;53.574;10.054;2022-09-09T01:36:18;15.50;99.90
14000;DHT22;7075;53.574;10.054;2022-09-09T01:38:45;15.50;99.90
14000;DHT22;7075;53.574;10.054;2022-09-09T01:41:10;15.50;99.90
14000;DHT22;7075;53.574;10.054;2022-09-09T01:43:36;15.50;99.90
14000;DHT22;7075;53.574;10.054;2022-09-09T01:46:02;15.50;99.90
14000;DHT22;7075;53.574;10.054;2022-09-09T01:48:28;15.50;99.90
14000;DHT22;7075;53.574;10.054;2022-09-09T01:50:55;15.50;99.90
14000;DHT22;7075;53.574;10.054;2022-09-09T01:53:21;15.50;99.90
14000;DHT22;7075;53.574;10.054;2022-09-09T01:56:11;15.50;99.90
14000;DHT22;7075;53.574;10.054;2022-09-09T02:04:42;15.50;99.90
14000;DHT22;7075;53.574;10.054;2022-09-09T02:09:47;15.40;99.90
14000;DHT22;7075;53.574;10.054;2022-09-09T02:12:16;15.40;99.90
14000;DHT22;7075;53.574;10.054;2022-09-09T02:14:50;15.40;99.90
14000;DHT22;7075;53.574;10.054;2022-09-09T02:17:25;15.40;99.90
14000;DHT22;7075;53.574;10.054;2022-09-09T02:19:57;15.30;99.90
14000;DHT22;7075;53.574;10.054;2022-09-09T02:22:26;15.30;99.90
14000;DHT22;7075;53.574;10.054;2022-09-09T02:24:54;15.30;99.90
14000;DHT22;7075;53.574;10.054;2022-09-09T02:27:22;15.30;99.90
14000;DHT22;7075;53.574;10.054;2022-09-09T02:29:49;15.40;99.90
14000;DHT22;7075;53.574;10.054;2022-09-09T02:32:22;15.40;99.90
14000;DHT22;7075;53.574;10.054;2022-09-09T02:34:55;15.40;99.90
14000;DHT22;7075;53.574;10.054;2022-09-09T02:37:25;15.30;99.90
14000;DHT22;7075;53.574;10.054;2022-09-09T02:39:54;15.30;99.90
14000;DHT22;7075;53.574;10.054;2022-09-09T02:42:20;15.20;99.90
14000;DHT22;7075;53.574;10.054;2022-09-09T02:44:46;15.20;99.90
14000;DHT22;7075;53.574;10.054;2022-09-09T02:58:04;15.40;99.90
14000;DHT22;7075;53.574;10.054;2022-09-09T03:00:32;15.40;99.90
14000;DHT22;7075;53.574;10.054;2022-09-09T03:02:59;15.30;99.90
14000;DHT22;7075;53.574;10.054;2022-09-09T03:05:24;15.20;99.90
14000;DHT22;7075;53.574;10.054;2022-09-09T03:07:51;15.20;99.90
14000;DHT22;7075;53.574;10.054;2022-09-09T03:10:17;15.10;99.90
14000;DHT22;7075;53.574;10.054;2022-09-09T03:12:43;15.20;99.90
14000;DHT22;7075;53.574;10.054;2022-09-09T03:15:09;15.20;99.90
14000;DHT22;7075;53.574;10.054;2022-09-09T03:17:35;15.20;99.90
14000;DHT22;7075;53.574;10.054;2022-09-09T03:20:04;15.10;99.90
14000;DHT22;7075;53.574;10.054;2022-09-09T03:22:31;15.20;99.90
14000;DHT22;7075;53.574;10.054;2022-09-09T03:24:56;15.20;99.90
14000;DHT22;7075;53.574;10.054;2022-09-09T03:27:22;15.20;99.90
14000;DHT22;7075;53.574;10.054;2022-09-09T03:29:48;15.20;99.90
14000;DHT22;7075;53.574;10.054;2022-09-09T03:32:17;15.20;99.90
14000;DHT22;7075;53.574;10.054;2022-09-09T03:34:43;15.20;99.90
14000;DHT22;7075;53.574;10.054;2022-09-09T03:37:08;15.20;99.90
14000;DHT22;7075;53.574;10.054;2022-09-09T03:39:34;15.20;99.90
14000;DHT22;7075;53.574;10.054;2022-09-09T03:42:00;15.20;99.90
14000;DHT22;7075;53.574;10.054;2022-09-09T03:44:29;15.30;99.90
14000;DHT22;7075;53.574;10.054;2022-09-09T03:46:55;15.20;99.90
14000;DHT22;7075;53.574;10.054;2022-09-09T03:49:21;15.20;99.90
14000;DHT22;7075;53.574;10.054;2022-09-09T03:51:48;15.10;99.90
14000;DHT22;7075;53.574;10.054;2022-09-09T03:54:13;15.10;99.90
14000;DHT22;7075;53.574;10.054;2022-09-09T03:56:39;15.00;99.90
14000;DHT22;7075;53.574;10.054;2022-09-09T03:59:07;15.00;99.90
14000;DHT22;7075;53.574;10.054;2022-09-09T04:01:34;15.10;99.90
14000;DHT22;7075;53.574;10.054;2022-09-09T04:03:59;15.10;99.90
14000;DHT22;7075;53.574;10.054;2022-09-09T04:06:25;15.00;99.90
14000;DHT22;7075;53.574;10.054;2022-09-09T04:08:51;15.00;99.90
14000;DHT22;7075;53.574;10.054;2022-09-09T04:11:17;15.00;99.90
14000;DHT22;7075;53.574;10.054;2022-09-09T04:13:43;15.00;99.90
14000;DHT22;7075;53.574;10.054;2022-09-09T04:16:10;15.00;99.90
14000;DHT22;7075;53.574;10.054;2022-09-09T04:18:36;15.00;99.90
14000;DHT22;7075;53.574;10.054;2022-09-09T04:21:02;15.00;99.90
14000;DHT22;7075;53.574;10.054;2022-09-09T04:23:29;15.00;99.90
14000;DHT22;7075;53.574;10.054;2022-09-09T04:25:57;15.00;99.90
14000;DHT22;7075;53.574;10.054;2022-09-09T04:28:24;15.00;99.90
14000;DHT22;7075;53.574;10.054;2022-09-09T04:30:51;14.90;99.90
14000;DHT22;7075;53.574;10.054;2022-09-09T04:33:18;15.00;99.90
14000;DHT22;7075;53.574;10.054;2022-09-09T04:35:46;15.00;99.90
14000;DHT22;7075;53.574;10.054;2022-09-09T04:38:14;14.90;99.90
14000;DHT22;7075;53.574;10.054;2022-09-09T04:40:42;14.90;99.90
14000;DHT22;7075;53.574;10.054;2022-09-09T04:43:09;14.90;99.90
14000;DHT22;7075;53.574;10.054;2022-09-09T04:45:35;14.90;99.90
14000;DHT22;7075;53.574;10.054;2022-09-09T04:48:00;14.90;99.90
14000;DHT22;7075;53.574;10.054;2022-09-09T04:50:27;14.90;99.90
14000;DHT22;7075;53.574;10.054;2022-09-09T04:52:53;15.00;99.90
14000;DHT22;7075;53.574;10.054;2022-09-09T04:55:19;15.00;99.90
14000;DHT22;7075;53.574;10.054;2022-09-09T04:57:45;15.00;99.90
14000;DHT22;7075;53.574;10.054;2022-09-09T05:00:11;15.00;99.90
14000;DHT22;7075;53.574;10.054;2022-09-09T05:02:38;15.10;99.90
14000;DHT22;7075;53.574;10.054;2022-09-09T05:05:04;15.10;99.90
14000;DHT22;7075;53.574;10.054;2022-09-09T05:07:30;15.10;99.90
14000;DHT22;7075;53.574;10.054;2022-09-09T05:09:57;15.10;99.90
14000;DHT22;7075;53.574;10.054;2022-09-09T05:12:23;15.10;99.90
14000;DHT22;7075;53.574;10.054;2022-09-09T05:14:49;15.10;99.90
14000;DHT22;7075;53.574;10.054;2022-09-09T05:17:15;15.20;99.90
14000;DHT22;7075;53.574;10.054;2022-09-09T05:19:41;15.10;99.90
14000;DHT22;7075;53.574;10.054;2022-09-09T05:22:08;15.10;99.90
14000;DHT22;7075;53.574;10.054;2022-09-09T05:24:34;15.10;99.90
14000;DHT22;7075;53.574;10.054;2022-09-09T05:26:59;15.10;99.90
14000;DHT22;7075;53.574;10.054;2022-09-09T05:29:27;15.10;99.90
14000;DHT22;7075;53.574;10.054;2022-09-09T05:31:52;15.10;99.90
14000;DHT22;7075;53.574;10.054;2022-09-09T05:34:18;15.10;99.90
14000;DHT22;7075;53.574;10.054;2022-09-09T05:36:44;15.10;99.90
14000;DHT22;7075;53.574;10.054;2022-09-09T05:39:10;15.20;99.90
14000;DHT22;7075;53.574;10.054;2022-09-09T05:41:39;15.20;99.90
14000;DHT22;7075;53.574;10.054;2022-09-09T05:44:05;15.20;99.90
14000;DHT22;7075;53.574;10.054;2022-09-09T05:46:31;15.20;99.90
14000;DHT22;7075;53.574;10.054;2022-09-09T05:48:57;15.20;99.90
14000;DHT22;7075;53.574;10.054;2022-09-09T05:51:25;15.20;99.90
14000;DHT22;7075;53.574;10.054;2022-09-09T05:53:52;15.20;99.90
14000;DHT22;7075;53.574;10.054;2022-09-09T05:56:19;15.10;99.90
14000;DHT22;7075;53.574;10.054;2022-09-09T05:58:48;15.10;99.90
14000;DHT22;7075;53.574;10.054;2022-09-09T06:01:19;15.20;99.90
14000;DHT22;7075;53.574;10.054;2022-09-09T06:03:47;15.10;99.90
14000;DHT22;7075;53.574;10.054;2022-09-09T06:06:18;15.10;99.90
14000;DHT22;7075;53.574;10.054;2022-09-09T06:08:46;15.00;99.90
14000;DHT22;7075;53.574;10.054;2022-09-09T06:11:13;15.00;99.90
14000;DHT22;7075;53.574;10.054;2022-09-09T06:13:39;15.10;99.90
14000;DHT22;7075;53.574;10.054;2022-09-09T06:16:16;15.10;99.90
14000;DHT22;7075;53.574;10.054;2022-09-09T06:18:42;15.00;99.90
14000;DHT22;7075;53.574;10.054;2022-09-09T06:21:23;15.10;99.90
14000;DHT22;7075;53.574;10.054;2022-09-09T06:23:49;15.20;99.90
14000;DHT22;7075;53.574;10.054;2022-09-09T06:26:22;15.20;99.90
14000;DHT22;7075;53.574;10.054;2022-09-09T06:28:51;15.10;99.90
14000;DHT22;7075;53.574;10.054;2022-09-09T06:31:20;15.10;99.90
14000;DHT22;7075;53.574;10.054;2022-09-09T06:33:50;15.00;99.90
14000;DHT22;7075;53.574;10.054;2022-09-09T06:36:25;14.90;99.90
14000;DHT22;7075;53.574;10.054;2022-09-09T06:38:51;15.00;99.90
14000;DHT22;7075;53.574;10.054;2022-09-09T06:41:18;15.00;99.90
14000;DHT22;7075;53.574;10.054;2022-09-09T06:43:44;15.00;99.90
14000;DHT22;7075;53.574;10.054;2022-09-09T06:46:30;15.00;99.90
14000;DHT22;7075;53.574;10.054;2022-09-09T06:48:57;15.10;99.90
14000;DHT22;7075;53.574;10.054;2022-09-09T06:51:26;15.10;99.90
14000;DHT22;7075;53.574;10.054;2022-09-09T06:53:54;15.00;99.90
14000;DHT22;7075;53.574;10.054;2022-09-09T06:56:32;15.10;99.90
14000;DHT22;7075;53.574;10.054;2022-09-09T06:58:59;15.20;99.90
14000;DHT22;7075;53.574;10.054;2022-09-09T07:01:31;15.30;99.90
14000;DHT22;7075;53.574;10.054;2022-09-09T07:03:58;15.30;99.90
14000;DHT22;7075;53.574;10.054;2022-09-09T07:06:27;15.50;99.90
14000;DHT22;7075;53.574;10.054;2022-09-09T07:08:54;15.60;99.90
14000;DHT22;7075;53.574;10.054;2022-09-09T07:11:22;15.60;99.90
14000;DHT22;7075;53.574;10.054;2022-09-09T07:13:48;15.60;99.90
14000;DHT22;7075;53.574;10.054;2022-09-09T07:16:18;15.60;99.90
14000;DHT22;7075;53.574;10.054;2022-09-09T07:18:44;15.60;99.90
14000;DHT22;7075;53.574;10.054;2022-09-09T07:21:11;15.50;99.90
14000;DHT22;7075;53.574;10.054;2022-09-09T07:23:38;15.40;99.90
14000;DHT22;7075;53.574;10.054;2022-09-09T07:26:16;15.40;99.90
14000;DHT22;7075;53.574;10.054;2022-09-09T07:28:42;15.40;99.90
14000;DHT22;7075;53.574;10.054;2022-09-09T07:31:17;15.40;99.90
14000;DHT22;7075;53.574;10.054;2022-09-09T07:33:44;15.40;99.90
14000;DHT22;7075;53.574;10.054;2022-09-09T07:36:19;15.50;99.90
14000;DHT22;7075;53.574;10.054;2022-09-09T07:38:56;15.40;99.90
14000;DHT22;7075;53.574;10.054;2022-09-09T07:41:28;15.60;99.90
14000;DHT22;7075;53.574;10.054;2022-09-09T07:43:54;15.80;99.90
14000;DHT22;7075;53.574;10.054;2022-09-09T07:46:21;15.80;99.90
14000;DHT22;7075;53.574;10.054;2022-09-09T07:48:53;15.90;99.90
14000;DHT22;7075;53.574;10.054;2022-09-09T07:51:28;15.90;99.90
14000;DHT22;7075;53.574;10.054;2022-09-09T07:53:59;15.90;99.90
14000;DHT22;7075;53.574;10.054;2022-09-09T07:56:28;16.00;99.90
14000;DHT22;7075;53.574;10.054;2022-09-09T07:58:55;16.10;99.90
14000;DHT22;7075;53.574;10.054;2022-09-09T08:01:23;16.20;99.90
14000;DHT22;7075;53.574;10.054;2022-09-09T08:04:01;16.20;99.90
14000;DHT22;7075;53.574;10.054;2022-09-09T08:06:28;16.20;99.90
14000;DHT22;7075;53.574;10.054;2022-09-09T08:08:54;16.10;99.90
14000;DHT22;7075;53.574;10.054;2022-09-09T08:11:22;16.10;99.90
14000;DHT22;7075;53.574;10.054;2022-09-09T08:13:49;16.10;99.90
14000;DHT22;7075;53.574;10.054;2022-09-09T08:16:26;16.20;99.90
14000;DHT22;7075;53.574;10.054;2022-09-09T08:18:52;16.10;99.90
14000;DHT22;7075;53.574;10.054;2022-09-09T08:21:22;16.10;99.90
14000;DHT22;7075;53.574;10.054;2022-09-09T08:23:50;16.20;99.90
14000;DHT22;7075;53.574;10.054;2022-09-09T08:26:28;16.20;99.90
14000;DHT22;7075;53.574;10.054;2022-09-09T08:28:56;16.40;99.90
14000;DHT22;7075;53.574;10.054;2022-09-09T08:31:23;16.50;99.90
14000;DHT22;7075;53.574;10.054;2022-09-09T08:33:50;16.50;99.90
14000;DHT22;7075;53.574;10.054;2022-09-09T08:36:18;16.70;99.90
14000;DHT22;7075;53.574;10.054;2022-09-09T08:38:47;16.80;99.90
14000;DHT22;7075;53.574;10.054;2022-09-09T08:52:23;16.90;99.90
14000;DHT22;7075;53.574;10.054;2022-09-09T08:54:51;16.90;99.90
14000;DHT22;7075;53.574;10.054;2022-09-09T08:57:26;17.00;99.90
14000;DHT22;7075;53.574;10.054;2022-09-09T08:59:53;17.00;99.90
14000;DHT22;7075;53.574;10.054;2022-09-09T09:02:48;17.00;99.90
14000;DHT22;7075;53.574;10.054;2022-09-09T09:05:26;16.90;99.90
14000;DHT22;7075;53.574;10.054;2022-09-09T09:08:25;16.90;99.90
14000;DHT22;7075;53.574;10.054;2022-09-09T09:10:54;17.00;99.90
14000;DHT22;7075;53.574;10.054;2022-09-09T09:13:43;17.20;99.90
14000;DHT22;7075;53.574;10.054;2022-09-09T09:16:19;17.40;99.90
14000;DHT22;7075;53.574;10.054;2022-09-09T09:18:47;17.60;99.90
14000;DHT22;7075;53.574;10.054;2022-09-09T09:21:29;17.70;99.90
14000;DHT22;7075;53.574;10.054;2022-09-09T09:24:00;17.80;99.90
14000;DHT22;7075;53.574;10.054;2022-09-09T09:26:44;17.80;99.90
14000;DHT22;7075;53.574;10.054;2022-09-09T09:29:18;17.60;99.90
14000;DHT22;7075;53.574;10.054;2022-09-09T09:31:52;17.70;99.90
14000;DHT22;7075;53.574;10.054;2022-09-09T09:34:20;17.70;99.90
14000;DHT22;7075;53.574;10.054;2022-09-09T09:36:59;17.80;99.90
14000;DHT22;7075;53.574;10.054;2022-09-09T09:39:31;17.90;99.90
14000;DHT22;7075;53.574;10.054;2022-09-09T09:42:10;17.80;99.90
14000;DHT22;7075;53.574;10.054;2022-09-09T09:44:39;17.80;99.90
14000;DHT22;7075;53.574;10.054;2022-09-09T09:47:12;17.80;99.90
14000;DHT22;7075;53.574;10.054;2022-09-09T09:49:39;18.00;99.90
14000;DHT22;7075;53.574;10.054;2022-09-09T09:52:05;18.10;99.90
14000;DHT22;7075;53.574;10.054;2022-09-09T09:54:42;18.10;99.90
14000;DHT22;7075;53.574;10.054;2022-09-09T09:57:12;18.20;99.90
14000;DHT22;7075;53.574;10.054;2022-09-09T09:59:38;18.20;99.90
14000;DHT22;7075;53.574;10.054;2022-09-09T10:02:24;18.30;99.90
14000;DHT22;7075;53.574;10.054;2022-09-09T10:08:13;18.10;99.90
14000;DHT22;7075;53.574;10.054;2022-09-09T10:13:28;18.10;99.90
14000;DHT22;7075;53.574;10.054;2022-09-09T10:19:00;18.30;99.90
14000;DHT22;7075;53.574;10.054;2022-09-09T10:27:08;18.50;99.90
14000;DHT22;7075;53.574;10.054;2022-09-09T10:30:11;18.60;99.90
14000;DHT22;7075;53.574;10.054;2022-09-09T10:38:26;19.00;99.90
14000;DHT22;7075;53.574;10.054;2022-09-09T10:48:58;19.50;99.90
14000;DHT22;7075;53.574;10.054;2022-09-09T10:56:34;20.20;99.90
14000;DHT22;7075;53.574;10.054;2022-09-09T11:01:56;19.90;99.90
14000;DHT22;7075;53.574;10.054;2022-09-09T11:04:42;19.80;99.90
14000;DHT22;7075;53.574;10.054;2022-09-09T11:07:14;19.80;99.90
14000;DHT22;7075;53.574;10.054;2022-09-09T11:09:47;19.70;99.90
14000;DHT22;7075;53.574;10.054;2022-09-09T11:12:18;19.70;99.90
14000;DHT22;7075;53.574;10.054;2022-09-09T11:14:59;19.90;99.90
14000;DHT22;7075;53.574;10.054;2022-09-09T11:17:33;20.00;99.90
14000;DHT22;7075;53.574;10.054;2022-09-09T11:20:01;20.30;99.90
14000;DHT22;7075;53.574;10.054;2022-09-09T11:22:36;20.30;99.90
14000;DHT22;7075;53.574;10.054;2022-09-09T11:25:26;20.50;99.90
14000;DHT22;7075;53.574;10.054;2022-09-09T11:28:16;20.70;99.90
14000;DHT22;7075;53.574;10.054;2022-09-09T11:36:46;21.10;99.90
14000;DHT22;7075;53.574;10.054;2022-09-09T11:40:04;20.90;99.90
14000;DHT22;7075;53.574;10.054;2022-09-09T11:42:22;21.00;99.90
14000;DHT22;7075;53.574;10.054;2022-09-09T11:44:49;20.80;99.90
14000;DHT22;7075;53.574;10.054;2022-09-09T11:47:25;20.60;99.90
14000;DHT22;7075;53.574;10.054;2022-09-09T11:52:44;20.60;99.90
14000;DHT22;7075;53.574;10.054;2022-09-09T11:55:28;20.50;99.90
14000;DHT22;7075;53.574;10.054;2022-09-09T11:58:02;20.50;99.90
14000;DHT22;7075;53.574;10.054;2022-09-09T12:00:37;20.50;99.90
14000;DHT22;7075;53.574;10.054;2022-09-09T12:03:05;20.70;99.90
14000;DHT22;7075;53.574;10.054;2022-09-09T12:05:40;20.90;99.90
14000;DHT22;7075;53.574;10.054;2022-09-09T12:08:09;21.20;99.90
14000;DHT22;7075;53.574;10.054;2022-09-09T12:10:40;21.40;99.90
14000;DHT22;7075;53.574;10.054;2022-09-09T12:15:50;21.40;99.90
14000;DHT22;7075;53.574;10.054;2022-09-09T12:18:24;21.30;99.90
14000;DHT22;7075;53.574;10.054;2022-09-09T12:23:49;20.90;99.90
14000;DHT22;7075;53.574;10.054;2022-09-09T12:26:43;20.80;99.90
14000;DHT22;7075;53.574;10.054;2022-09-09T12:32:00;20.70;99.90
14000;DHT22;7075;53.574;10.054;2022-09-09T12:37:04;20.80;99.90
14000;DHT22;7075;53.574;10.054;2022-09-09T12:39:36;20.90;99.90
14000;DHT22;7075;53.574;10.054;2022-09-09T12:42:03;21.00;99.90
14000;DHT22;7075;53.574;10.054;2022-09-09T12:44:30;21.10;99.90
14000;DHT22;7075;53.574;10.054;2022-09-09T12:46:59;21.40;99.90
14000;DHT22;7075;53.574;10.054;2022-09-09T12:49:30;21.40;99.90
14000;DHT22;7075;53.574;10.054;2022-09-09T12:52:01;21.50;99.90
14000;DHT22;7075;53.574;10.054;2022-09-09T12:54:27;21.50;99.90
14000;DHT22;7075;53.574;10.054;2022-09-09T12:56:53;21.50;99.90
14000;DHT22;7075;53.574;10.054;2022-09-09T12:59:25;21.30;99.90
14000;DHT22;7075;53.574;10.054;2022-09-09T13:01:58;21.20;99.90
14000;DHT22;7075;53.574;10.054;2022-09-09T13:04:24;21.00;99.90
14000;DHT22;7075;53.574;10.054;2022-09-09T13:06:50;20.90;99.90
14000;DHT22;7075;53.574;10.054;2022-09-09T13:09:18;20.80;99.90
14000;DHT22;7075;53.574;10.054;2022-09-09T13:11:50;20.60;99.90
14000;DHT22;7075;53.574;10.054;2022-09-09T13:14:22;20.70;99.90
14000;DHT22;7075;53.574;10.054;2022-09-09T13:16:59;20.60;99.90
14000;DHT22;7075;53.574;10.054;2022-09-09T13:19:25;20.50;99.90
14000;DHT22;7075;53.574;10.054;2022-09-09T13:21:54;20.40;99.90
14000;DHT22;7075;53.574;10.054;2022-09-09T13:24:33;20.50;99.90
14000;DHT22;7075;53.574;10.054;2022-09-09T13:27:01;20.40;99.90
14000;DHT22;7075;53.574;10.054;2022-09-09T13:29:30;20.30;99.90
14000;DHT22;7075;53.574;10.054;2022-09-09T13:32:04;20.10;99.90
14000;DHT22;7075;53.574;10.054;2022-09-09T13:34:34;20.00;99.90
14000;DHT22;7075;53.574;10.054;2022-09-09T13:37:05;20.10;99.90
14000;DHT22;7075;53.574;10.054;2022-09-09T13:39:37;19.90;99.90
14000;DHT22;7075;53.574;10.054;2022-09-09T13:42:03;19.70;99.90
14000;DHT22;7075;53.574;10.054;2022-09-09T13:44:33;19.40;99.90
14000;DHT22;7075;53.574;10.054;2022-09-09T13:47:17;19.30;99.90
14000;DHT22;7075;53.574;10.054;2022-09-09T13:49:44;19.00;99.90
14000;DHT22;7075;53.574;10.054;2022-09-09T13:52:16;18.90;99.90
14000;DHT22;7075;53.574;10.054;2022-09-09T13:54:50;18.80;99.90
14000;DHT22;7075;53.574;10.054;2022-09-09T13:57:22;18.70;99.90
14000;DHT22;7075;53.574;10.054;2022-09-09T13:59:51;18.60;99.90
14000;DHT22;7075;53.574;10.054;2022-09-09T14:02:18;18.70;99.90
14000;DHT22;7075;53.574;10.054;2022-09-09T14:04:44;18.80;99.90
14000;DHT22;7075;53.574;10.054;2022-09-09T14:07:15;19.00;99.90
14000;DHT22;7075;53.574;10.054;2022-09-09T14:09:41;19.00;99.90
14000;DHT22;7075;53.574;10.054;2022-09-09T14:12:11;19.20;99.90
14000;DHT22;7075;53.574;10.054;2022-09-09T14:14:37;19.20;99.90
14000;DHT22;7075;53.574;10.054;2022-09-09T14:17:03;19.20;99.90
14000;DHT22;7075;53.574;10.054;2022-09-09T14:19:29;19.30;99.90
14000;DHT22;7075;53.574;10.054;2022-09-09T14:21:56;19.30;99.90
14000;DHT22;7075;53.574;10.054;2022-09-09T14:24:22;19.40;99.90
14000;DHT22;7075;53.574;10.054;2022-09-09T14:26:48;19.40;99.90
14000;DHT22;7075;53.574;10.054;2022-09-09T14:29:13;19.30;99.90
14000;DHT22;7075;53.574;10.054;2022-09-09T14:31:39;19.10;99.90
14000;DHT22;7075;53.574;10.054;2022-09-09T14:34:05;19.00;99.90
14000;DHT22;7075;53.574;10.054;2022-09-09T14:36:31;18.80;99.90
14000;DHT22;7075;53.574;10.054;2022-09-09T14:38:57;18.80;99.90
14000;DHT22;7075;53.574;10.054;2022-09-09T14:41:24;18.70;99.90
14000;DHT22;7075;53.574;10.054;2022-09-09T14:43:51;18.50;99.90
14000;DHT22;7075;53.574;10.054;2022-09-09T14:46:19;18.60;99.90
14000;DHT22;7075;53.574;10.054;2022-09-09T14:48:45;18.60;99.90
14000;DHT22;7075;53.574;10.054;2022-09-09T14:51:23;18.70;99.90
14000;DHT22;7075;53.574;10.054;2022-09-09T14:53:53;18.80;99.90
14000;DHT22;7075;53.574;10.054;2022-09-09T14:56:21;18.80;99.90
14000;DHT22;7075;53.574;10.054;2022-09-09T14:58:49;18.90;99.90
14000;DHT22;7075;53.574;10.054;2022-09-09T15:01:17;18.90;99.90
14000;DHT22;7075;53.574;10.054;2022-09-09T15:03:52;18.90;99.90
14000;DHT22;7075;53.574;10.054;2022-09-09T15:06:19;19.00;99.90
14000;DHT22;7075;53.574;10.054;2022-09-09T15:08:46;19.00;99.90
14000;DHT22;7075;53.574;10.054;2022-09-09T15:11:14;19.00;99.90
14000;DHT22;7075;53.574;10.054;2022-09-09T15:13:41;18.90;99.90
14000;DHT22;7075;53.574;10.054;2022-09-09T15:18:35;18.90;99.90
14000;DHT22;7075;53.574;10.054;2022-09-09T15:21:02;18.90;99.90
14000;DHT22;7075;53.574;10.054;2022-09-09T15:23:31;18.90;99.90
14000;DHT22;7075;53.574;10.054;2022-09-09T15:25:57;18.90;99.90
14000;DHT22;7075;53.574;10.054;2022-09-09T15:28:23;18.80;99.90
14000;DHT22;7075;53.574;10.054;2022-09-09T15:30:50;18.90;99.90
14000;DHT22;7075;53.574;10.054;2022-09-09T15:33:17;19.00;99.90
14000;DHT22;7075;53.574;10.054;2022-09-09T15:35:43;19.00;99.90
14000;DHT22;7075;53.574;10.054;2022-09-09T15:38:09;19.00;99.90
14000;DHT22;7075;53.574;10.054;2022-09-09T15:40:34;19.10;99.90
14000;DHT22;7075;53.574;10.054;2022-09-09T15:43:01;19.10;99.90
14000;DHT22;7075;53.574;10.054;2022-09-09T15:45:28;19.00;99.90
14000;DHT22;7075;53.574;10.054;2022-09-09T15:47:57;19.00;99.90
14000;DHT22;7075;53.574;10.054;2022-09-09T15:50:23;19.00;99.90
14000;DHT22;7075;53.574;10.054;2022-09-09T15:52:49;19.10;99.90
14000;DHT22;7075;53.574;10.054;2022-09-09T15:55:14;19.00;99.90
14000;DHT22;7075;53.574;10.054;2022-09-09T15:57:40;18.90;99.90
14000;DHT22;7075;53.574;10.054;2022-09-09T16:00:06;18.70;99.90
14000;DHT22;7075;53.574;10.054;2022-09-09T16:02:32;18.50;99.90
14000;DHT22;7075;53.574;10.054;2022-09-09T16:04:58;18.50;99.90
14000;DHT22;7075;53.574;10.054;2022-09-09T16:07:24;18.50;99.90
14000;DHT22;7075;53.574;10.054;2022-09-09T16:09:49;18.60;99.90
14000;DHT22;7075;53.574;10.054;2022-09-09T16:12:18;18.70;99.90
14000;DHT22;7075;53.574;10.054;2022-09-09T16:14:44;19.00;99.90
14000;DHT22;7075;53.574;10.054;2022-09-09T16:17:10;19.10;99.90
14000;DHT22;7075;53.574;10.054;2022-09-09T16:19:37;19.20;99.90
14000;DHT22;7075;53.574;10.054;2022-09-09T16:22:04;19.30;99.90
14000;DHT22;7075;53.574;10.054;2022-09-09T16:24:30;19.30;99.90
14000;DHT22;7075;53.574;10.054;2022-09-09T16:26:55;19.40;99.90
14000;DHT22;7075;53.574;10.054;2022-09-09T16:29:22;19.40;99.90
14000;DHT22;7075;53.574;10.054;2022-09-09T16:31:49;19.50;99.90
14000;DHT22;7075;53.574;10.054;2022-09-09T16:34:16;19.50;99.90
14000;DHT22;7075;53.574;10.054;2022-09-09T16:36:43;19.40;99.90
14000;DHT22;7075;53.574;10.054;2022-09-09T16:39:11;19.40;99.90
14000;DHT22;7075;53.574;10.054;2022-09-09T16:41:38;19.60;99.90
14000;DHT22;7075;53.574;10.054;2022-09-09T16:44:07;19.70;99.90
14000;DHT22;7075;53.574;10.054;2022-09-09T16:46:39;19.70;99.90
14000;DHT22;7075;53.574;10.054;2022-09-09T16:49:07;19.70;99.90
14000;DHT22;7075;53.574;10.054;2022-09-09T16:51:36;19.80;99.90
14000;DHT22;7075;53.574;10.054;2022-09-09T16:54:04;19.80;99.90
14000;DHT22;7075;53.574;10.054;2022-09-09T16:56:33;19.90;99.90
14000;DHT22;7075;53.574;10.054;2022-09-09T16:59:01;19.90;99.90
14000;DHT22;7075;53.574;10.054;2022-09-09T17:01:29;19.80;99.90
14000;DHT22;7075;53.574;10.054;2022-09-09T17:04:00;19.80;99.90
14000;DHT22;7075;53.574;10.054;2022-09-09T17:06:27;19.70;99.90
14000;DHT22;7075;53.574;10.054;2022-09-09T17:08:58;19.70;99.90
14000;DHT22;7075;53.574;10.054;2022-09-09T17:11:25;19.60;99.90
14000;DHT22;7075;53.574;10.054;2022-09-09T17:13:52;19.50;99.90
14000;DHT22;7075;53.574;10.054;2022-09-09T17:16:19;19.50;99.90
14000;DHT22;7075;53.574;10.054;2022-09-09T17:18:47;19.60;99.90
14000;DHT22;7075;53.574;10.054;2022-09-09T17:21:15;19.60;99.90
14000;DHT22;7075;53.574;10.054;2022-09-09T17:23:42;19.60;99.90
14000;DHT22;7075;53.574;10.054;2022-09-09T17:26:10;19.60;99.90
14000;DHT22;7075;53.574;10.054;2022-09-09T17:28:40;19.50;99.90
14000;DHT22;7075;53.574;10.054;2022-09-09T17:31:08;19.40;99.90
14000;DHT22;7075;53.574;10.054;2022-09-09T17:33:36;19.30;99.90
14000;DHT22;7075;53.574;10.054;2022-09-09T17:36:07;19.30;99.90
14000;DHT22;7075;53.574;10.054;2022-09-09T17:38:34;19.20;99.90
14000;DHT22;7075;53.574;10.054;2022-09-09T17:41:05;19.10;99.90
14000;DHT22;7075;53.574;10.054;2022-09-09T17:43:32;19.00;99.90